createdAt,value
2019-02-28T00:01:21.428Z,9.32
2019-02-28T00:03:49.072Z,9.34
2019-02-28T00:06:15.548Z,9.48
2019-02-28T00:08:42.047Z,9.45
2019-02-28T00:11:08.704Z,9.66
2019-02-28T00:13:35.186Z,9.73
2019-02-28T00:16:03.437Z,9.87
2019-02-28T00:18:30.084Z,10.11
2019-02-28T00:20:56.622Z,10.28
2019-02-28T00:23:23.121Z,10.43
2019-02-28T00:25:49.761Z,10.53
2019-02-28T00:28:16.250Z,10.54
2019-02-28T00:30:43.056Z,10.60
2019-02-28T00:33:09.674Z,10.69
2019-02-28T00:35:36.314Z,10.83
2019-02-28T00:38:03.301Z,10.90
2019-02-28T00:40:30.222Z,10.86
2019-02-28T00:42:56.733Z,10.82
2019-02-28T00:45:23.210Z,10.92
2019-02-28T00:47:50.391Z,10.93
2019-02-28T00:50:16.873Z,11.00
2019-02-28T00:52:43.388Z,11.04
2019-02-28T00:55:10.212Z,10.97
2019-02-28T00:57:36.969Z,10.95
2019-02-28T01:00:06.278Z,10.90
2019-02-28T01:02:33.203Z,10.87
2019-02-28T01:05:01.297Z,10.82
2019-02-28T01:07:28.072Z,10.85
2019-02-28T01:09:55.024Z,10.85
2019-02-28T01:12:21.655Z,10.86
2019-02-28T01:14:48.485Z,10.76
2019-02-28T01:17:14.996Z,10.80
2019-02-28T01:19:42.379Z,10.77
2019-02-28T01:22:10.165Z,10.76
2019-02-28T01:24:36.701Z,10.71
2019-02-28T01:27:10.130Z,10.74
2019-02-28T01:29:36.883Z,10.82
2019-02-28T01:32:03.495Z,10.83
2019-02-28T01:34:32.179Z,10.76
2019-02-28T01:36:59.012Z,10.67
2019-02-28T01:39:25.516Z,10.70
2019-02-28T01:41:51.977Z,10.74
2019-02-28T01:44:18.615Z,10.79
2019-02-28T01:46:48.520Z,10.82
2019-02-28T01:49:13.760Z,10.74
2019-02-28T01:51:40.579Z,10.74
2019-02-28T01:54:07.088Z,10.70
2019-02-28T01:56:34.243Z,10.76
2019-02-28T01:59:01.961Z,10.70
2019-02-28T02:01:30.966Z,10.59
2019-02-28T02:03:57.113Z,10.60
2019-02-28T02:06:25.732Z,10.66
2019-02-28T02:08:52.446Z,10.58
2019-02-28T02:11:19.204Z,10.65
2019-02-28T02:13:45.712Z,10.66
2019-02-28T02:16:12.213Z,10.71
2019-02-28T02:18:40.317Z,10.77
2019-02-28T02:21:07.389Z,10.72
2019-02-28T02:23:33.929Z,10.68
2019-02-28T02:26:00.448Z,10.79
2019-02-28T02:28:27.830Z,10.69
2019-02-28T02:30:54.598Z,10.53
2019-02-28T02:33:21.197Z,10.39
2019-02-28T02:35:47.919Z,10.28
2019-02-28T02:38:16.460Z,10.17
2019-02-28T02:40:43.265Z,9.98
2019-02-28T02:43:09.756Z,9.87
2019-02-28T02:45:41.731Z,9.77
2019-02-28T02:48:05.705Z,9.63
2019-02-28T02:50:35.823Z,9.62
2019-02-28T02:53:05.444Z,9.61
2019-02-28T02:55:29.805Z,9.07
2019-02-28T02:57:56.597Z,8.69
2019-02-28T03:00:23.196Z,8.24
2019-02-28T03:02:49.781Z,8.01
2019-02-28T03:05:16.642Z,7.88
2019-02-28T03:07:43.212Z,7.98
2019-02-28T03:10:10.799Z,8.14
2019-02-28T03:12:37.252Z,7.97
2019-02-28T03:15:04.562Z,7.95
2019-02-28T03:17:31.042Z,7.84
2019-02-28T03:19:59.116Z,7.71
2019-02-28T03:22:29.772Z,7.63
2019-02-28T03:24:54.303Z,7.65
2019-02-28T03:27:20.904Z,7.49
2019-02-28T03:29:47.619Z,7.55
2019-02-28T03:32:14.136Z,7.50
2019-02-28T03:34:40.601Z,7.49
2019-02-28T03:37:07.077Z,7.43
2019-02-28T03:39:33.535Z,7.30
2019-02-28T03:42:00.286Z,7.24
2019-02-28T03:44:26.904Z,7.09
2019-02-28T03:46:53.392Z,7.03
2019-02-28T03:49:19.899Z,6.87
2019-02-28T03:51:46.420Z,6.79
2019-02-28T03:54:18.804Z,6.87
2019-02-28T03:56:51.237Z,6.95
2019-02-28T03:59:18.248Z,6.83
2019-02-28T04:01:45.651Z,6.64
2019-02-28T04:04:12.243Z,6.50
2019-02-28T04:06:40.734Z,6.36
2019-02-28T04:09:08.913Z,6.23
2019-02-28T04:11:35.725Z,6.07
2019-02-28T04:14:02.245Z,5.93
2019-02-28T04:16:28.994Z,5.84
2019-02-28T04:18:55.701Z,5.97
2019-02-28T04:21:22.193Z,5.90
2019-02-28T04:23:48.668Z,5.85
2019-02-28T04:26:17.214Z,5.83
2019-02-28T04:28:43.750Z,5.78
2019-02-28T04:31:10.297Z,5.76
2019-02-28T04:33:38.875Z,5.86
2019-02-28T04:36:05.152Z,5.89
2019-02-28T04:38:31.795Z,5.83
2019-02-28T04:40:59.026Z,5.81
2019-02-28T04:43:26.660Z,5.78
2019-02-28T04:45:53.141Z,5.77
2019-02-28T04:48:19.730Z,5.78
2019-02-28T04:50:46.204Z,5.82
2019-02-28T04:53:12.677Z,5.79
2019-02-28T04:55:39.166Z,5.86
2019-02-28T04:58:05.618Z,5.93
2019-02-28T05:00:32.094Z,5.84
2019-02-28T05:02:58.690Z,5.89
2019-02-28T05:05:25.165Z,5.96
2019-02-28T05:07:51.929Z,5.90
2019-02-28T05:10:19.220Z,5.86
2019-02-28T05:12:46.773Z,5.89
2019-02-28T05:15:14.462Z,5.93
2019-02-28T05:17:41.222Z,5.98
2019-02-28T05:20:11.010Z,6.02
2019-02-28T05:22:36.600Z,6.01
2019-02-28T05:25:03.260Z,6.19
2019-02-28T05:27:34.881Z,6.25
2019-02-28T05:29:59.179Z,6.28
2019-02-28T05:32:25.672Z,6.37
2019-02-28T05:34:52.119Z,6.46
2019-02-28T05:37:19.663Z,6.61
2019-02-28T05:39:46.129Z,6.69
2019-02-28T05:42:12.610Z,6.76
2019-02-28T05:44:56.681Z,6.85
2019-02-28T05:47:23.471Z,6.90
2019-02-28T05:49:50.294Z,6.87
2019-02-28T05:52:18.821Z,6.82
2019-02-28T05:54:47.365Z,6.88
2019-02-28T05:57:14.063Z,6.86
2019-02-28T05:59:40.868Z,6.80
2019-02-28T06:02:07.433Z,6.77
2019-02-28T06:04:34.173Z,6.79
2019-02-28T06:07:02.357Z,6.78
2019-02-28T06:09:28.956Z,6.75
2019-02-28T06:11:55.557Z,6.78
2019-02-28T06:14:26.633Z,6.78
2019-02-28T06:16:51.511Z,6.86
2019-02-28T06:19:18.057Z,6.98
2019-02-28T06:21:46.216Z,7.02
2019-02-28T06:24:13.603Z,6.99
2019-02-28T06:26:40.449Z,7.09
2019-02-28T06:29:12.287Z,7.15
2019-02-28T06:31:39.231Z,7.13
2019-02-28T06:34:08.605Z,7.12
2019-02-28T06:36:34.287Z,7.13
2019-02-28T06:39:01.499Z,7.16
2019-02-28T06:41:28.141Z,7.30
2019-02-28T06:43:54.657Z,7.32
2019-02-28T06:46:21.181Z,7.36
2019-02-28T06:48:47.714Z,7.40
2019-02-28T06:51:16.740Z,7.43
2019-02-28T06:53:42.738Z,7.42
2019-02-28T06:56:09.594Z,7.49
2019-02-28T06:58:36.233Z,7.57
2019-02-28T07:01:02.975Z,7.66
2019-02-28T07:03:29.929Z,7.70
2019-02-28T07:06:01.033Z,7.75
2019-02-28T07:08:28.960Z,7.76
2019-02-28T07:10:55.555Z,7.87
2019-02-28T07:13:22.690Z,7.91
2019-02-28T07:15:49.252Z,7.99
2019-02-28T07:18:18.908Z,8.07
2019-02-28T07:20:47.158Z,8.09
2019-02-28T07:23:13.398Z,8.19
2019-02-28T07:25:39.934Z,8.30
2019-02-28T07:28:06.611Z,8.40
2019-02-28T07:30:33.137Z,8.51
2019-02-28T07:32:59.709Z,8.62
2019-02-28T07:35:32.894Z,8.82
2019-02-28T07:37:57.078Z,8.91
2019-02-28T07:40:25.943Z,9.04
2019-02-28T07:42:52.793Z,9.21
2019-02-28T07:45:19.323Z,9.36
2019-02-28T07:47:51.707Z,9.57
2019-02-28T07:50:15.114Z,9.76
2019-02-28T07:52:47.243Z,9.98
2019-02-28T07:55:15.151Z,10.16
2019-02-28T07:57:41.700Z,10.36
2019-02-28T08:00:18.311Z,10.63
2019-02-28T08:02:43.184Z,10.81
2019-02-28T08:05:10.881Z,10.98
2019-02-28T08:07:38.593Z,11.10
2019-02-28T08:10:08.327Z,11.22
2019-02-28T08:12:34.852Z,11.53
2019-02-28T08:15:13.701Z,11.72
2019-02-28T08:17:40.690Z,11.97
2019-02-28T08:20:11.917Z,12.32
2019-02-28T08:22:38.430Z,12.54
2019-02-28T08:25:07.818Z,12.73
2019-02-28T08:27:39.400Z,12.93
2019-02-28T08:30:10.192Z,12.93
2019-02-28T08:32:42.387Z,13.03
2019-02-28T08:35:06.373Z,13.15
2019-02-28T08:37:32.846Z,13.42
2019-02-28T08:39:59.992Z,13.45
2019-02-28T08:42:26.598Z,13.57
2019-02-28T08:44:58.129Z,13.70
2019-02-28T08:47:21.970Z,13.67
2019-02-28T08:49:48.457Z,13.53
2019-02-28T08:52:15.648Z,13.31
2019-02-28T08:54:42.205Z,13.11
2019-02-28T08:57:12.981Z,12.97
2019-02-28T08:59:39.592Z,13.02
2019-02-28T09:02:06.119Z,13.10
2019-02-28T09:04:41.010Z,13.07
2019-02-28T09:07:01.356Z,13.09
2019-02-28T09:09:27.892Z,12.94
2019-02-28T09:11:58.126Z,13.14
2019-02-28T09:14:35.461Z,13.43
2019-02-28T09:17:02.207Z,13.77
2019-02-28T09:19:28.780Z,14.05
2019-02-28T09:21:55.410Z,14.34
2019-02-28T09:24:22.725Z,14.57
2019-02-28T09:26:53.698Z,14.40
2019-02-28T09:29:21.205Z,14.47
2019-02-28T09:31:49.743Z,14.58
2019-02-28T09:34:16.443Z,14.69
2019-02-28T09:36:43.156Z,14.65
2019-02-28T09:39:09.969Z,14.80
2019-02-28T09:41:40.353Z,15.36
2019-02-28T09:44:07.017Z,15.55
2019-02-28T09:46:33.988Z,15.12
2019-02-28T09:49:03.132Z,14.98
2019-02-28T09:51:32.125Z,15.29
2019-02-28T09:53:59.177Z,15.77
2019-02-28T09:56:28.172Z,15.79
2019-02-28T09:58:54.899Z,15.66
2019-02-28T10:01:24.414Z,15.92
2019-02-28T10:03:52.247Z,15.97
2019-02-28T10:06:19.202Z,16.07
2019-02-28T10:08:45.845Z,16.20
2019-02-28T10:11:12.495Z,16.25
2019-02-28T10:13:39.089Z,16.40
2019-02-28T10:16:05.803Z,16.48
2019-02-28T10:18:35.543Z,16.24
2019-02-28T10:21:02.749Z,16.31
2019-02-28T10:23:29.546Z,16.37
2019-02-28T10:25:56.254Z,16.04
2019-02-28T10:28:25.297Z,16.41
2019-02-28T10:30:51.907Z,16.50
2019-02-28T10:33:18.462Z,16.39
2019-02-28T10:35:45.078Z,16.15
2019-02-28T10:38:11.807Z,16.21
2019-02-28T10:40:38.314Z,16.29
2019-02-28T10:43:04.879Z,16.36
2019-02-28T10:45:31.463Z,16.41
2019-02-28T10:48:02.975Z,16.72
2019-02-28T10:50:31.991Z,17.27
2019-02-28T10:52:54.993Z,17.64
2019-02-28T10:55:22.416Z,17.60
2019-02-28T10:57:50.225Z,17.15
2019-02-28T11:00:23.327Z,16.93
2019-02-28T11:02:53.543Z,16.90
2019-02-28T11:05:21.012Z,16.90
2019-02-28T11:07:56.926Z,16.76
2019-02-28T11:10:36.190Z,16.70
2019-02-28T11:13:04.266Z,16.62
2019-02-28T11:15:30.868Z,16.57
2019-02-28T11:17:57.538Z,16.89
2019-02-28T11:20:26.247Z,17.02
2019-02-28T11:22:57.316Z,17.38
2019-02-28T11:25:24.512Z,17.19
2019-02-28T11:27:53.754Z,16.28
2019-02-28T11:30:20.197Z,16.40
2019-02-28T11:32:48.404Z,16.40
2019-02-28T11:35:15.139Z,16.12
2019-02-28T11:37:42.349Z,15.94
2019-02-28T11:40:10.442Z,15.93
2019-02-28T11:42:37.009Z,16.29
2019-02-28T11:45:04.176Z,16.63
2019-02-28T11:47:32.162Z,16.43
2019-02-28T11:50:03.549Z,16.59
2019-02-28T11:52:27.453Z,16.32
2019-02-28T11:54:54.816Z,16.10
2019-02-28T11:57:21.436Z,16.32
2019-02-28T11:59:48.376Z,16.52
2019-02-28T12:02:15.270Z,16.28
2019-02-28T12:04:42.030Z,16.52
2019-02-28T12:07:09.609Z,16.25
2019-02-28T12:09:36.272Z,16.43
2019-02-28T12:12:03.174Z,16.57
2019-02-28T12:14:30.172Z,16.37
2019-02-28T12:16:57.242Z,16.46
2019-02-28T12:19:26.114Z,16.31
2019-02-28T12:21:52.602Z,16.81
2019-02-28T12:24:19.346Z,17.23
2019-02-28T12:26:45.996Z,17.22
2019-02-28T12:29:13.798Z,17.55
2019-02-28T12:31:40.683Z,17.51
2019-02-28T12:34:07.217Z,17.27
2019-02-28T12:36:34.224Z,16.80
2019-02-28T12:39:02.298Z,16.82
2019-02-28T12:41:29.506Z,16.66
2019-02-28T12:43:56.043Z,16.78
2019-02-28T12:46:23.108Z,16.94
2019-02-28T12:48:49.586Z,16.97
2019-02-28T12:51:16.450Z,16.86
2019-02-28T12:53:42.978Z,17.13
2019-02-28T12:56:11.290Z,17.26
2019-02-28T12:58:39.234Z,17.40
2019-02-28T13:01:05.965Z,17.40
2019-02-28T13:03:32.599Z,18.07
2019-02-28T13:05:59.284Z,17.85
2019-02-28T13:08:25.893Z,17.41
2019-02-28T13:10:52.545Z,17.80
2019-02-28T13:13:21.006Z,17.51
2019-02-28T13:15:49.218Z,17.62
2019-02-28T13:18:16.006Z,17.69
2019-02-28T13:20:42.672Z,17.37
2019-02-28T13:23:09.191Z,16.99
2019-02-28T13:25:35.867Z,16.36
2019-02-28T13:28:02.896Z,16.19
2019-02-28T13:30:30.128Z,16.14
2019-02-28T13:32:56.681Z,16.17
2019-02-28T13:35:25.269Z,16.45
2019-02-28T13:37:52.147Z,16.45
2019-02-28T13:40:22.380Z,16.18
2019-02-28T13:42:49.593Z,15.86
2019-02-28T13:45:23.045Z,15.74
2019-02-28T13:47:47.613Z,15.73
2019-02-28T13:50:17.386Z,15.83
2019-02-28T13:52:46.098Z,16.14
2019-02-28T13:55:14.208Z,16.16
2019-02-28T13:57:43.417Z,16.17
2019-02-28T14:00:18.217Z,16.10
2019-02-28T14:02:45.097Z,15.95
2019-02-28T14:05:12.225Z,15.80
2019-02-28T14:07:38.856Z,15.67
2019-02-28T14:10:07.519Z,15.65
2019-02-28T14:12:35.632Z,15.62
2019-02-28T14:15:02.741Z,15.49
2019-02-28T14:17:29.244Z,15.32
2019-02-28T14:19:56.008Z,15.10
2019-02-28T14:22:22.633Z,14.98
2019-02-28T14:24:49.159Z,14.79
2019-02-28T14:27:15.705Z,14.51
2019-02-28T14:29:48.055Z,14.44
2019-02-28T14:32:11.111Z,14.37
2019-02-28T14:34:37.698Z,14.28
2019-02-28T14:37:05.621Z,14.17
2019-02-28T14:39:32.330Z,14.19
2019-02-28T14:41:59.341Z,14.09
2019-02-28T14:44:27.915Z,14.00
2019-02-28T14:46:54.757Z,13.92
2019-02-28T14:49:23.716Z,13.88
2019-02-28T14:51:50.735Z,13.85
2019-02-28T14:54:17.651Z,13.92
2019-02-28T14:56:44.497Z,13.97
2019-02-28T14:59:11.102Z,13.97
2019-02-28T15:01:37.970Z,13.94
2019-02-28T15:04:07.780Z,13.85
2019-02-28T15:06:33.620Z,13.87
2019-02-28T15:09:00.252Z,13.87
2019-02-28T15:11:27.150Z,13.92
2019-02-28T15:13:53.754Z,14.00
2019-02-28T15:16:21.643Z,14.11
2019-02-28T15:18:51.010Z,14.15
2019-02-28T15:21:16.931Z,14.29
2019-02-28T15:23:44.893Z,14.42
2019-02-28T15:26:11.456Z,14.51
2019-02-28T15:28:38.057Z,14.48
2019-02-28T15:31:05.760Z,14.57
2019-02-28T15:33:33.689Z,14.59
2019-02-28T15:36:00.623Z,14.58
2019-02-28T15:38:27.234Z,14.63
2019-02-28T15:40:55.672Z,14.64
2019-02-28T15:43:22.605Z,14.54
2019-02-28T15:45:49.496Z,14.40
2019-02-28T15:48:16.892Z,14.29
2019-02-28T15:50:51.778Z,14.28
2019-02-28T15:53:18.443Z,14.26
2019-02-28T15:55:45.669Z,14.23
2019-02-28T15:58:16.614Z,14.18
2019-02-28T16:00:43.584Z,14.21
2019-02-28T16:03:10.107Z,14.15
2019-02-28T16:05:42.488Z,14.06
2019-02-28T16:08:08.756Z,13.98
2019-02-28T16:10:33.909Z,13.86
2019-02-28T16:13:00.801Z,13.79
2019-02-28T16:15:27.932Z,13.66
2019-02-28T16:17:54.672Z,13.54
2019-02-28T16:20:22.606Z,13.40
2019-02-28T16:22:52.375Z,13.31
2019-02-28T16:25:20.730Z,13.18
2019-02-28T16:27:47.372Z,13.06
2019-02-28T16:30:16.092Z,12.91
2019-02-28T16:32:45.537Z,12.82
2019-02-28T16:35:14.748Z,12.78
2019-02-28T16:37:40.671Z,12.72
2019-02-28T16:40:10.062Z,12.62
2019-02-28T16:42:36.771Z,12.56
2019-02-28T16:45:06.106Z,12.50
2019-02-28T16:47:33.635Z,12.44
2019-02-28T16:50:00.457Z,12.43
2019-02-28T16:52:27.600Z,12.37
2019-02-28T16:54:56.309Z,12.33
2019-02-28T16:57:26.984Z,12.26
2019-02-28T16:59:53.989Z,12.20
2019-02-28T17:02:20.855Z,12.15
2019-02-28T17:04:48.693Z,12.08
2019-02-28T17:07:15.991Z,12.00
2019-02-28T17:09:42.968Z,11.90
2019-02-28T17:12:34.800Z,11.87
2019-02-28T17:15:02.417Z,11.80
2019-02-28T17:17:33.331Z,11.80
2019-02-28T17:20:03.045Z,11.75
2019-02-28T17:22:29.678Z,11.68
2019-02-28T17:24:56.167Z,11.58
2019-02-28T17:27:30.215Z,11.55
2019-02-28T17:30:10.767Z,11.51
2019-02-28T17:32:37.592Z,11.42
2019-02-28T17:35:04.796Z,11.40
2019-02-28T17:37:31.320Z,11.38
2019-02-28T17:39:57.834Z,11.39
2019-02-28T17:42:24.513Z,11.40
2019-02-28T17:45:01.669Z,11.38
2019-02-28T17:48:12.825Z,11.30
2019-02-28T17:50:52.732Z,11.25
2019-02-28T17:53:48.327Z,11.20
2019-02-28T17:56:41.953Z,11.15
2019-02-28T17:59:49.016Z,11.06
2019-02-28T18:02:58.349Z,11.04
2019-02-28T18:05:50.263Z,10.94
2019-02-28T18:08:37.819Z,10.84
2019-02-28T18:11:50.135Z,10.76
2019-02-28T18:14:34.078Z,10.73
2019-02-28T18:17:33.407Z,10.71
2019-02-28T18:20:25.860Z,10.68
2019-02-28T18:23:04.433Z,10.62
2019-02-28T18:26:06.388Z,10.66
2019-02-28T18:28:58.114Z,10.74
2019-02-28T18:31:25.510Z,10.81
2019-02-28T18:34:10.842Z,10.90
2019-02-28T18:36:40.211Z,10.98
2019-02-28T18:39:11.649Z,11.06
2019-02-28T18:41:38.889Z,11.11
2019-02-28T18:44:05.448Z,11.16
2019-02-28T18:46:32.388Z,11.19
2019-02-28T18:48:58.870Z,11.25
2019-02-28T18:51:25.361Z,11.28
2019-02-28T18:53:52.128Z,11.27
2019-02-28T18:56:18.961Z,11.26
2019-02-28T18:58:45.542Z,11.26
2019-02-28T19:01:12.292Z,11.21
2019-02-28T19:03:39.074Z,11.19
2019-02-28T19:06:05.759Z,11.15
2019-02-28T19:08:32.333Z,11.14
2019-02-28T19:10:58.844Z,11.12
2019-02-28T19:13:25.336Z,11.10
2019-02-28T19:15:53.635Z,11.07
2019-02-28T19:18:31.499Z,11.04
2019-02-28T19:20:58.324Z,11.01
2019-02-28T19:23:32.978Z,10.96
2019-02-28T19:25:59.589Z,10.93
2019-02-28T19:28:33.530Z,10.90
2019-02-28T19:31:10.127Z,10.88
2019-02-28T19:33:38.599Z,10.87
2019-02-28T19:36:24.504Z,10.86
2019-02-28T19:38:51.938Z,10.88
2019-02-28T19:41:21.308Z,10.85
2019-02-28T19:43:48.721Z,10.86
2019-02-28T19:46:26.450Z,10.87
2019-02-28T19:48:55.679Z,10.87
2019-02-28T19:51:23.124Z,10.85
2019-02-28T19:53:51.987Z,10.82
2019-02-28T19:56:19.179Z,10.81
2019-02-28T19:58:47.301Z,10.81
2019-02-28T20:01:19.028Z,10.81
2019-02-28T20:03:45.540Z,10.81
2019-02-28T20:06:14.142Z,10.84
2019-02-28T20:08:41.471Z,10.85
2019-02-28T20:11:18.723Z,10.88
2019-02-28T20:13:53.188Z,10.93
2019-02-28T20:16:23.261Z,10.96
2019-02-28T20:18:50.823Z,11.06
2019-02-28T20:21:20.349Z,11.10
2019-02-28T20:24:13.571Z,11.10
2019-02-28T20:26:41.067Z,11.06
2019-02-28T20:29:09.011Z,11.00
2019-02-28T20:31:36.310Z,10.98
2019-02-28T20:34:04.903Z,10.93
2019-02-28T20:36:33.768Z,10.89
2019-02-28T20:39:00.432Z,10.89
2019-02-28T20:41:28.579Z,10.84
2019-02-28T20:43:55.403Z,10.82
2019-02-28T20:46:22.125Z,10.79
2019-02-28T20:48:48.679Z,10.73
2019-02-28T20:51:15.544Z,10.67
2019-02-28T20:53:42.165Z,10.66
2019-02-28T20:56:09.699Z,10.64
2019-02-28T20:58:36.202Z,10.59
2019-02-28T21:01:03.749Z,10.59
2019-02-28T21:03:30.584Z,10.60
2019-02-28T21:05:58.558Z,10.55
2019-02-28T21:08:25.150Z,10.50
2019-02-28T21:10:52.125Z,10.44
2019-02-28T21:13:18.655Z,10.34
2019-02-28T21:15:46.403Z,10.27
2019-02-28T21:18:12.955Z,10.20
2019-02-28T21:20:46.712Z,10.08
2019-02-28T21:23:13.776Z,10.03
2019-02-28T21:25:40.269Z,9.94
2019-02-28T21:28:06.711Z,9.87
2019-02-28T21:30:33.579Z,9.80
2019-02-28T21:33:00.145Z,9.72
2019-02-28T21:35:26.990Z,9.64
2019-02-28T21:37:53.802Z,9.55
2019-02-28T21:40:20.419Z,9.44
2019-02-28T21:42:47.072Z,9.43
2019-02-28T21:45:15.528Z,9.37
2019-02-28T21:47:42.110Z,9.27
2019-02-28T21:50:09.782Z,9.23
2019-02-28T21:52:36.457Z,9.18
2019-02-28T21:55:04.164Z,9.26
2019-02-28T21:57:30.722Z,9.27
2019-02-28T21:59:57.597Z,9.33
2019-02-28T22:02:24.110Z,9.33
2019-02-28T22:04:50.973Z,9.32
2019-02-28T22:07:17.975Z,9.33
2019-02-28T22:09:44.675Z,9.34
2019-02-28T22:12:11.135Z,9.36
2019-02-28T22:14:37.609Z,9.33
2019-02-28T22:17:04.173Z,9.31
2019-02-28T22:19:31.006Z,9.30
2019-02-28T22:21:57.838Z,9.27
2019-02-28T22:24:24.653Z,9.25
2019-02-28T22:26:51.420Z,9.25
2019-02-28T22:29:18.012Z,9.25
2019-02-28T22:32:08.109Z,9.27
2019-02-28T22:34:47.216Z,9.29
2019-02-28T22:37:13.649Z,9.25
2019-02-28T22:39:40.133Z,9.29
2019-02-28T22:42:08.631Z,9.30
2019-02-28T22:44:35.401Z,9.26
2019-02-28T22:47:01.900Z,9.24
2019-02-28T22:49:28.461Z,9.24
2019-02-28T22:51:55.449Z,9.26
2019-02-28T22:54:21.910Z,9.27
2019-02-28T22:56:48.814Z,9.27
2019-02-28T22:59:15.275Z,9.24
2019-02-28T23:01:42.831Z,9.25
2019-02-28T23:04:09.882Z,9.25
2019-02-28T23:06:36.392Z,9.26
2019-02-28T23:09:03.964Z,9.27
2019-02-28T23:11:39.706Z,9.27
2019-02-28T23:14:06.295Z,9.26
2019-02-28T23:16:32.833Z,9.26
2019-02-28T23:18:59.293Z,9.25
2019-02-28T23:21:26.057Z,9.25
2019-02-28T23:23:53.602Z,9.24
2019-02-28T23:26:24.772Z,9.21
2019-02-28T23:28:59.389Z,9.17
2019-02-28T23:31:43.908Z,9.15
2019-02-28T23:34:16.229Z,9.16
2019-02-28T23:36:42.714Z,9.15
2019-02-28T23:39:09.514Z,9.15
2019-02-28T23:41:36.379Z,9.15
2019-02-28T23:44:02.971Z,9.16
2019-02-28T23:46:29.424Z,9.15
2019-02-28T23:48:55.885Z,9.15
2019-02-28T23:51:22.346Z,9.14
2019-02-28T23:53:49.185Z,9.14
2019-02-28T23:56:15.662Z,9.17
2019-02-28T23:58:42.181Z,9.15
